Aviation Digital Data Service (ADDS)

Output produced by METARs form (0716 UTC 20 October 2018)
found at http://www.aviationweather.gov/metar/data/
 
FWCL 200700Z 07007KT 9999 FEW015 BKN025 26/18 Q1020 NOSIG
TAF AMD FWCL 200700Z 2006/2112 12009KT 9999 BKN018 
     BECMG 2010/2012 13008KT 9999 BKN025 
     PROB30 
     TEMPO 2012/2014 12010KT 8000 TSRA FEW025CB BKN030 
     BECMG 2018/2020 11010KT 9999 SCT030 
     BECMG 2104/2106 12008KT 9999 SCT020 
     BECMG 2108/2112 13009KT 9999 FEW025CB BKN030